createdAt,value
2019-04-10T00:02:23.786Z,99.90
2019-04-10T00:07:18.378Z,99.90
2019-04-10T00:12:12.140Z,99.90
2019-04-10T00:17:05.574Z,99.90
2019-04-10T00:21:59.771Z,99.90
2019-04-10T00:26:54.380Z,99.90
2019-04-10T00:31:48.677Z,99.90
2019-04-10T00:36:42.005Z,99.90
2019-04-10T00:41:35.115Z,99.90
2019-04-10T00:46:28.806Z,99.90
2019-04-10T00:51:22.286Z,99.90
2019-04-10T00:56:16.834Z,99.90
2019-04-10T01:01:10.507Z,99.90
2019-04-10T01:06:03.989Z,99.90
2019-04-10T01:10:57.314Z,99.90
2019-04-10T01:15:50.998Z,99.90
2019-04-10T01:20:44.268Z,99.90
2019-04-10T01:25:37.469Z,99.90
2019-04-10T01:30:30.742Z,99.90
2019-04-10T01:35:24.556Z,99.90
2019-04-10T01:40:17.745Z,99.90
2019-04-10T01:45:11.395Z,99.90
2019-04-10T01:50:04.802Z,99.90
2019-04-10T01:54:57.911Z,99.90
2019-04-10T01:59:51.106Z,99.90
2019-04-10T02:04:44.450Z,99.90
2019-04-10T02:09:37.526Z,99.90
2019-04-10T02:14:30.746Z,99.90
2019-04-10T02:19:23.925Z,99.90
2019-04-10T02:24:17.151Z,99.90
2019-04-10T02:29:11.336Z,99.90
2019-04-10T02:34:05.342Z,99.90
2019-04-10T02:39:14.410Z,99.90
2019-04-10T02:43:55.581Z,99.90
2019-04-10T02:48:50.070Z,99.90
2019-04-10T02:58:49.241Z,99.90
2019-04-10T03:03:44.565Z,99.90
2019-04-10T03:08:54.882Z,99.90
2019-04-10T03:13:35.707Z,99.90
2019-04-10T03:18:28.966Z,99.90
2019-04-10T03:23:23.013Z,99.90
2019-04-10T03:28:16.704Z,99.90
2019-04-10T03:33:21.637Z,99.90
2019-04-10T03:38:11.947Z,99.90
2019-04-10T03:43:05.570Z,99.90
2019-04-10T03:47:59.891Z,99.90
2019-04-10T03:52:53.754Z,99.90
2019-04-10T03:57:46.983Z,99.90
2019-04-10T04:02:40.175Z,99.90
2019-04-10T04:07:33.258Z,99.90
2019-04-10T04:12:26.690Z,99.90
2019-04-10T04:17:20.151Z,99.90
2019-04-10T04:22:13.303Z,99.90
2019-04-10T04:27:06.364Z,99.90
2019-04-10T04:31:59.947Z,99.90
2019-04-10T04:36:53.625Z,99.90
2019-04-10T04:41:47.838Z,99.90
2019-04-10T04:46:41.144Z,99.90
2019-04-10T04:51:34.626Z,99.90
2019-04-10T04:56:28.228Z,99.90
2019-04-10T05:01:21.577Z,99.90
2019-04-10T05:06:18.114Z,99.90
2019-04-10T05:11:11.903Z,99.90
2019-04-10T05:16:06.102Z,99.90
2019-04-10T05:20:59.403Z,99.90
2019-04-10T05:25:52.579Z,99.90
2019-04-10T05:30:45.744Z,99.90
2019-04-10T05:35:39.811Z,99.90
2019-04-10T05:40:34.609Z,99.90
2019-04-10T05:45:27.915Z,99.90
2019-04-10T05:50:21.533Z,99.90
2019-04-10T05:55:16.084Z,99.90
2019-04-10T06:00:12.566Z,99.90
2019-04-10T06:05:07.751Z,99.90
2019-04-10T06:10:05.077Z,99.90
2019-04-10T06:14:56.683Z,99.90
2019-04-10T06:19:50.970Z,99.90
2019-04-10T06:24:44.647Z,99.90
2019-04-10T06:29:39.198Z,99.90
2019-04-10T06:34:32.519Z,99.90
2019-04-10T06:39:26.824Z,99.90
2019-04-10T06:44:20.170Z,99.90
2019-04-10T06:49:14.381Z,99.90
2019-04-10T06:54:11.229Z,99.90
2019-04-10T06:59:02.721Z,99.90
2019-04-10T07:04:02.040Z,99.90
2019-04-10T07:08:53.301Z,99.90
2019-04-10T07:13:45.955Z,99.90
2019-04-10T07:18:40.166Z,99.00
2019-04-10T07:23:34.488Z,99.60
2019-04-10T07:28:27.863Z,99.90
2019-04-10T07:33:21.131Z,99.60
2019-04-10T07:38:14.275Z,97.70
2019-04-10T07:43:07.470Z,96.80
2019-04-10T07:48:00.640Z,96.10
2019-04-10T07:52:54.177Z,97.70
2019-04-10T07:57:50.018Z,98.20
2019-04-10T08:02:42.749Z,99.00
2019-04-10T08:07:37.345Z,98.80
2019-04-10T08:31:10.108Z,88.60
2019-04-10T08:36:03.414Z,90.40
2019-04-10T08:40:56.625Z,93.10
2019-04-10T08:45:52.199Z,93.10
2019-04-10T08:50:46.065Z,91.60
2019-04-10T08:55:40.070Z,90.00
2019-04-10T09:00:34.374Z,89.30
2019-04-10T09:05:28.177Z,85.20
2019-04-10T09:10:22.591Z,84.40
2019-04-10T09:15:16.040Z,84.30
2019-04-10T09:20:10.889Z,85.00
2019-04-10T09:25:05.592Z,85.70
2019-04-10T09:29:58.791Z,86.10
2019-04-10T09:34:52.102Z,86.30
2019-04-10T09:39:45.916Z,83.60
2019-04-10T09:44:40.075Z,83.50
2019-04-10T09:49:40.366Z,84.60
2019-04-10T09:54:28.376Z,83.90
2019-04-10T09:59:31.144Z,87.40
2019-04-10T10:04:17.363Z,87.50
2019-04-10T10:09:10.704Z,84.80
2019-04-10T10:14:04.090Z,84.60
2019-04-10T10:18:57.453Z,81.60
2019-04-10T10:23:50.623Z,82.20
2019-04-10T10:28:44.981Z,82.70
2019-04-10T10:33:39.507Z,83.20
2019-04-10T10:38:32.846Z,85.40
2019-04-10T10:43:26.612Z,84.70
2019-04-10T10:48:19.918Z,83.40
2019-04-10T10:53:14.258Z,82.20
2019-04-10T10:58:07.931Z,82.30
2019-04-10T11:03:02.301Z,81.90
2019-04-10T11:07:55.834Z,81.30
2019-04-10T11:12:49.079Z,77.90
2019-04-10T11:17:42.254Z,77.40
2019-04-10T11:22:35.563Z,78.30
2019-04-10T11:27:29.431Z,79.30
2019-04-10T11:32:23.915Z,77.40
2019-04-10T11:37:27.107Z,77.10
2019-04-10T11:42:12.305Z,74.20
2019-04-10T11:47:08.261Z,74.20
2019-04-10T11:52:01.822Z,73.60
2019-04-10T11:56:58.642Z,73.40
2019-04-10T12:01:58.117Z,73.40
2019-04-10T12:06:47.852Z,73.90
2019-04-10T12:11:41.575Z,71.20
2019-04-10T12:16:34.794Z,72.70
2019-04-10T12:21:28.095Z,72.20
2019-04-10T12:26:21.270Z,74.20
2019-04-10T12:31:15.550Z,76.60
2019-04-10T12:36:10.455Z,76.60
2019-04-10T12:41:03.653Z,78.20
2019-04-10T12:45:56.897Z,77.40
2019-04-10T12:50:50.530Z,78.90
2019-04-10T12:55:43.804Z,78.00
2019-04-10T13:00:38.082Z,79.30
2019-04-10T13:05:31.417Z,76.60
2019-04-10T13:10:24.540Z,78.70
2019-04-10T13:15:17.806Z,77.90
2019-04-10T13:20:13.598Z,78.10
2019-04-10T13:25:08.144Z,78.70
2019-04-10T13:30:01.389Z,80.00
2019-04-10T13:34:54.591Z,79.30
2019-04-10T13:39:48.889Z,79.40
2019-04-10T13:44:42.523Z,79.50
2019-04-10T13:49:35.892Z,80.40
2019-04-10T13:54:29.188Z,79.30
2019-04-10T13:59:22.647Z,77.80
2019-04-10T14:04:16.753Z,78.30
2019-04-10T14:09:31.189Z,77.20
2019-04-10T14:14:12.664Z,76.50
2019-04-10T14:19:06.379Z,76.30
2019-04-10T14:24:02.739Z,76.80
2019-04-10T14:28:55.986Z,75.80
2019-04-10T14:33:49.171Z,74.40
2019-04-10T14:38:43.276Z,74.00
2019-04-10T14:43:37.533Z,75.20
2019-04-10T14:48:31.943Z,75.00
2019-04-10T14:53:25.415Z,76.20
2019-04-10T14:58:24.015Z,75.50
2019-04-10T15:03:13.880Z,75.20
2019-04-10T15:08:07.211Z,75.50
2019-04-10T15:13:09.193Z,74.00
2019-04-10T15:17:56.083Z,73.60
2019-04-10T15:22:49.780Z,74.10
2019-04-10T15:27:43.802Z,74.00
2019-04-10T15:32:37.795Z,72.00
2019-04-10T15:37:31.303Z,73.70
2019-04-10T15:42:24.479Z,74.10
2019-04-10T15:47:21.442Z,75.00
2019-04-10T15:52:12.550Z,75.40
2019-04-10T15:57:06.858Z,76.80
2019-04-10T16:02:01.408Z,76.40
2019-04-10T16:06:55.847Z,76.10
2019-04-10T16:11:54.746Z,76.70
2019-04-10T16:17:15.238Z,78.10
2019-04-10T16:22:15.338Z,77.50
2019-04-10T16:27:08.607Z,76.50
2019-04-10T16:32:02.131Z,77.30
2019-04-10T16:36:55.385Z,78.60
2019-04-10T16:41:48.626Z,77.90
2019-04-10T16:46:42.499Z,77.10
2019-04-10T16:51:36.561Z,78.10
2019-04-10T16:56:29.832Z,79.00
2019-04-10T17:01:23.333Z,79.30
2019-04-10T17:06:17.573Z,79.70
2019-04-10T17:11:11.151Z,80.00
2019-04-10T17:16:05.136Z,79.20
2019-04-10T17:20:58.477Z,79.80
2019-04-10T17:25:52.674Z,80.90
2019-04-10T17:30:46.370Z,81.80
2019-04-10T17:35:40.038Z,82.40
2019-04-10T17:40:40.437Z,82.80
2019-04-10T17:45:29.183Z,83.90
2019-04-10T17:50:22.706Z,83.00
2019-04-10T17:55:15.911Z,83.10
2019-04-10T18:00:31.286Z,84.50
2019-04-10T18:05:24.642Z,85.40
2019-04-10T18:10:17.917Z,87.40
2019-04-10T18:15:11.561Z,87.80
2019-04-10T18:20:04.974Z,87.80
2019-04-10T18:24:59.459Z,89.90
2019-04-10T18:29:52.662Z,90.60
2019-04-10T18:34:46.552Z,91.40
2019-04-10T18:39:40.897Z,92.20
2019-04-10T18:44:35.174Z,93.10
2019-04-10T18:49:29.521Z,94.00
2019-04-10T18:54:22.914Z,94.10
2019-04-10T18:59:28.955Z,94.70
2019-04-10T19:04:30.744Z,95.30
2019-04-10T19:09:28.695Z,95.60
2019-04-10T19:14:22.577Z,96.10
2019-04-10T19:19:16.348Z,97.50
2019-04-10T19:24:09.882Z,98.10
2019-04-10T19:29:03.373Z,98.70
2019-04-10T19:33:56.983Z,99.50
2019-04-10T19:38:50.383Z,99.90
2019-04-10T19:43:43.616Z,99.90
2019-04-10T19:48:36.920Z,99.90
2019-04-10T19:53:30.125Z,99.90
2019-04-10T19:58:23.154Z,99.90
2019-04-10T20:03:16.453Z,99.90
2019-04-10T20:08:12.618Z,99.90
2019-04-10T20:13:06.811Z,99.90
2019-04-10T20:18:00.174Z,99.90
2019-04-10T20:22:53.655Z,99.90
2019-04-10T20:27:47.947Z,99.90
2019-04-10T20:32:41.989Z,99.90
2019-04-10T20:37:35.220Z,99.90
2019-04-10T20:42:28.348Z,99.90
2019-04-10T20:47:22.532Z,99.90
2019-04-10T20:52:16.377Z,99.90
2019-04-10T20:57:11.066Z,99.90
2019-04-10T21:02:04.365Z,99.90
2019-04-10T21:06:58.562Z,99.90
2019-04-10T21:12:02.026Z,99.90
2019-04-10T21:16:47.677Z,99.90
2019-04-10T21:21:41.390Z,99.90
2019-04-10T21:26:34.721Z,99.90
2019-04-10T21:31:53.133Z,99.90
2019-04-10T21:36:46.405Z,99.90
2019-04-10T21:41:39.588Z,99.90
2019-04-10T21:46:33.010Z,99.90
2019-04-10T21:51:26.104Z,99.90
2019-04-10T21:56:20.224Z,99.90
2019-04-10T22:01:15.554Z,99.90
2019-04-10T22:06:31.148Z,99.90
2019-04-10T22:11:26.240Z,99.90
2019-04-10T22:16:22.567Z,99.90
2019-04-10T22:21:16.557Z,99.90
2019-04-10T22:26:09.920Z,99.90
2019-04-10T22:31:03.544Z,99.90
2019-04-10T22:35:58.174Z,99.90
2019-04-10T22:40:51.286Z,99.90
2019-04-10T22:45:44.497Z,99.90
2019-04-10T22:50:38.530Z,99.90
2019-04-10T22:55:31.925Z,99.90
2019-04-10T23:00:32.409Z,99.90
2019-04-10T23:05:26.805Z,99.90
2019-04-10T23:10:21.135Z,99.90
2019-04-10T23:15:15.436Z,99.90
2019-04-10T23:20:09.016Z,99.90
2019-04-10T23:25:02.846Z,99.90
2019-04-10T23:29:56.941Z,99.90
2019-04-10T23:34:50.124Z,99.90
2019-04-10T23:39:46.082Z,99.90
2019-04-10T23:44:41.321Z,99.90
2019-04-10T23:49:35.351Z,99.90
2019-04-10T23:54:29.032Z,99.90
2019-04-10T23:59:22.520Z,99.90
